Clifton, New York
Current Conditions -  °F | °C
As of 1:54 PM on Saturday 25 Oct 2014 (Local Time) from KROC Reporting Station
Overcast Overcast  
Wind Chill: 65°   Ceiling: 6000
Heat Index: 65°   Visibility: 10mi
Dew Point: 45°   Wind: 18mph
Humidity: 48%   Direction: 240°WSW
Pressure: 29.61"   Gusts: 28mph
Location:  43.0758°N, 77.8617°W
Report Text: KROC 251754Z 24016G24KT 10SM OVC060 18/07 A2961 RMK AO2 PK WND 25027/1727 SLP030 T01830072 10189 20100 56044
Loading
Personal Weather Stations






























Interactive Weather Map
Tropical Storm Tracking
New forecast layout! Learn more

10-Day Weather Forecast

Advertisements
Track Severe Weather on mobile